Time;durP1;ratioP1;P1;durP2;ratioP2;P2;SDS_P1;SDS_P2;PMS_P1;PMS_P2;Temp;Humidity;BMP_temperature;BMP_pressure;BME280_temperature;BME280_humidity;BME280_pressure;Samples;Min_cycle;Max_cycle;Signal;HPM_P1;HPM_P2
2021/10/02 00:47:18;;;;;;;4.30;2.65;;;16.70;99.90;;;;;;5010828;28;19935;-65
2021/10/02 00:50:22;;;;;;;3.95;2.90;;;16.50;99.90;;;;;;5010389;28;20036;-65
2021/10/02 00:53:27;;;;;;;9.00;3.20;;;16.50;99.90;;;;;;5010313;28;20292;-65
2021/10/02 00:56:31;;;;;;;7.65;2.92;;;16.50;99.90;;;;;;5010472;28;20058;-65
2021/10/02 00:59:36;;;;;;;4.57;2.63;;;16.50;99.90;;;;;;5009983;28;20041;-65
2021/10/02 01:03:03;;;;;;;5.28;2.70;;;16.40;99.90;;;;;;5010961;28;20508;-66
2021/10/02 01:06:29;;;;;;;7.97;3.13;;;16.40;99.90;;;;;;5010394;28;20049;-66
2021/10/02 01:10:16;;;;;;;6.30;2.72;;;16.40;99.90;;;;;;5010177;28;20037;-65
2021/10/02 01:13:44;;;;;;;6.57;2.70;;;16.40;99.90;;;;;;5010347;28;20041;-65
2021/10/02 01:16:52;;;;;;;5.20;3.13;;;16.40;99.90;;;;;;5010335;28;20041;-65
2021/10/02 01:20:05;;;;;;;8.43;3.20;;;16.30;99.90;;;;;;5009759;28;20053;-65
2021/10/02 01:23:28;;;;;;;6.82;3.30;;;16.00;99.90;;;;;;5010375;28;20527;-65
2021/10/02 01:27:11;;;;;;;7.07;3.13;;;15.80;99.90;;;;;;5010385;28;20049;-65
2021/10/02 01:30:26;;;;;;;6.70;2.90;;;15.70;99.90;;;;;;5010094;28;20113;-65
2021/10/02 01:47:23;;;;;;;5.50;3.60;;;15.50;99.90;;;;;;5010002;28;20049;-65
2021/10/02 01:50:37;;;;;;;7.38;3.25;;;15.50;99.90;;;;;;5010094;28;20040;-65
2021/10/02 01:53:44;;;;;;;5.13;2.97;;;15.50;99.90;;;;;;5010221;28;20041;-65
2021/10/02 01:56:49;;;;;;;6.13;3.28;;;15.50;99.90;;;;;;5009875;28;20527;-65
2021/10/02 01:59:55;;;;;;;6.93;3.25;;;15.40;99.90;;;;;;5009633;28;20033;-65
2021/10/02 02:03:04;;;;;;;9.82;3.58;;;15.40;99.90;;;;;;5009909;28;20110;-65
2021/10/02 02:06:10;;;;;;;6.82;3.50;;;15.40;99.90;;;;;;4997647;28;20045;-65
2021/10/02 02:09:16;;;;;;;9.80;3.40;;;15.40;99.90;;;;;;5009519;28;20069;-65
2021/10/02 02:12:21;;;;;;;6.18;3.13;;;15.30;99.90;;;;;;5009648;28;20060;-65
2021/10/02 02:15:29;;;;;;;4.60;3.03;;;15.30;99.90;;;;;;5009922;28;20053;-65
2021/10/02 02:18:34;;;;;;;7.93;3.38;;;15.20;99.90;;;;;;5012469;28;20049;-65
2021/10/02 02:21:38;;;;;;;7.20;3.60;;;15.30;99.90;;;;;;5013374;28;20045;-65
2021/10/02 02:24:42;;;;;;;6.25;3.78;;;15.30;99.90;;;;;;5013192;28;20049;-64
2021/10/02 02:27:46;;;;;;;6.72;3.33;;;15.20;99.90;;;;;;5013072;28;20052;-65
2021/10/02 02:30:51;;;;;;;7.90;3.65;;;15.20;99.90;;;;;;5013301;28;20045;-65
2021/10/02 02:33:55;;;;;;;6.32;3.65;;;15.10;99.90;;;;;;5013181;28;20049;-65
2021/10/02 02:36:59;;;;;;;6.60;3.80;;;15.10;99.90;;;;;;5013003;28;20057;-64
2021/10/02 02:40:06;;;;;;;10.20;3.78;;;15.10;99.90;;;;;;5012759;28;20058;-65
2021/10/02 02:43:10;;;;;;;9.07;4.32;;;15.10;99.90;;;;;;5013079;28;20499;-65
2021/10/02 02:46:27;;;;;;;9.93;4.20;;;15.10;99.90;;;;;;5012924;28;20041;-65
2021/10/02 02:49:37;;;;;;;6.95;3.78;;;15.10;99.90;;;;;;5012633;28;20053;-65
2021/10/02 02:52:47;;;;;;;10.43;4.00;;;15.10;99.90;;;;;;5012890;28;20045;-65
2021/10/02 02:55:57;;;;;;;7.53;4.07;;;15.10;99.90;;;;;;5012550;28;20049;-65
2021/10/02 02:59:10;;;;;;;6.28;3.75;;;15.10;99.90;;;;;;5012306;28;20491;-65
2021/10/02 03:02:19;;;;;;;7.53;3.75;;;15.10;99.90;;;;;;5012696;28;20424;-65
2021/10/02 03:05:26;;;;;;;9.52;4.57;;;15.10;99.90;;;;;;5000488;28;20037;-65
2021/10/02 03:08:45;;;;;;;9.73;4.72;;;15.00;99.90;;;;;;5011943;28;20052;-65
2021/10/02 03:11:53;;;;;;;8.07;4.25;;;15.00;99.90;;;;;;5012315;28;20045;-65
2021/10/02 03:15:00;;;;;;;6.45;4.15;;;15.10;99.90;;;;;;5012164;28;20041;-65
2021/10/02 03:18:07;;;;;;;6.18;4.00;;;15.10;99.90;;;;;;5011819;28;20424;-65
2021/10/02 03:21:12;;;;;;;7.88;4.53;;;15.20;99.90;;;;;;5012681;28;20052;-64
2021/10/02 03:24:18;;;;;;;7.88;4.53;;;15.10;99.90;;;;;;5012500;28;20041;-65
2021/10/02 03:27:22;;;;;;;9.75;4.30;;;14.90;99.90;;;;;;5000116;28;20049;-65
2021/10/02 03:30:30;;;;;;;7.68;4.15;;;14.90;99.90;;;;;;5011473;28;20507;-65
2021/10/02 03:33:35;;;;;;;9.65;4.38;;;14.80;99.90;;;;;;5012464;28;20369;-65
2021/10/02 03:36:40;;;;;;;9.35;4.95;;;14.70;99.90;;;;;;5011503;28;20064;-65
2021/10/02 03:39:44;;;;;;;6.68;4.25;;;14.60;99.90;;;;;;5011187;28;20049;-64
2021/10/02 03:42:51;;;;;;;5.95;3.58;;;14.60;99.90;;;;;;5011668;28;20416;-65
2021/10/02 03:45:56;;;;;;;7.72;4.25;;;14.60;99.90;;;;;;5011668;28;20520;-65
2021/10/02 03:49:00;;;;;;;6.95;4.05;;;14.50;99.90;;;;;;5011147;28;20041;-65
2021/10/02 03:52:04;;;;;;;7.45;4.20;;;14.50;99.90;;;;;;5011725;28;20045;-65
2021/10/02 03:55:12;;;;;;;6.80;3.92;;;14.40;99.90;;;;;;5011726;28;20041;-65
2021/10/02 03:58:16;;;;;;;8.85;4.28;;;14.40;99.90;;;;;;4998715;28;20045;-66
2021/10/02 04:01:20;;;;;;;7.07;4.55;;;14.50;99.90;;;;;;5011348;28;20596;-66
2021/10/02 04:04:24;;;;;;;7.90;4.45;;;14.60;99.90;;;;;;5011523;28;20454;-66
2021/10/02 04:07:29;;;;;;;9.80;4.35;;;14.60;99.90;;;;;;5011576;28;20053;-66
2021/10/02 04:10:33;;;;;;;9.80;4.55;;;14.60;99.90;;;;;;5011307;28;20049;-66
2021/10/02 04:13:37;;;;;;;7.15;4.47;;;14.50;99.90;;;;;;5011117;28;20539;-65
2021/10/02 04:16:41;;;;;;;7.25;4.78;;;14.50;99.90;;;;;;5011021;28;20041;-65
2021/10/02 04:19:45;;;;;;;10.38;4.35;;;14.50;99.90;;;;;;5010347;28;20058;-66
2021/10/02 04:22:49;;;;;;;11.23;5.05;;;14.60;99.90;;;;;;5010745;28;20050;-66
2021/10/02 04:25:53;;;;;;;10.13;4.53;;;14.60;99.90;;;;;;4998791;28;20041;-66
2021/10/02 04:28:57;;;;;;;10.60;4.80;;;14.60;99.90;;;;;;5010281;28;20041;-66
2021/10/02 04:32:02;;;;;;;7.65;5.05;;;14.70;99.90;;;;;;5010089;28;20392;-66
2021/10/02 04:35:07;;;;;;;10.05;5.20;;;14.70;99.90;;;;;;5010774;28;20049;-66
2021/10/02 04:38:11;;;;;;;13.00;5.75;;;14.70;99.90;;;;;;5010174;28;20041;-66
2021/10/02 04:41:15;;;;;;;11.63;4.80;;;14.80;99.90;;;;;;5011068;28;20041;-66
2021/10/02 04:44:20;;;;;;;12.18;5.25;;;14.80;99.90;;;;;;5009985;28;20053;-66
2021/10/02 04:47:26;;;;;;;12.90;6.40;;;14.80;99.90;;;;;;5011007;28;20045;-66
2021/10/02 04:50:32;;;;;;;7.95;4.70;;;14.80;99.90;;;;;;5010439;28;20045;-66
2021/10/02 04:53:37;;;;;;;8.70;4.20;;;14.80;99.90;;;;;;5010737;28;20500;-66
2021/10/02 04:56:42;;;;;;;10.25;5.65;;;14.80;99.90;;;;;;5010351;28;20396;-66
2021/10/02 04:59:46;;;;;;;8.57;4.53;;;14.80;99.90;;;;;;5010395;28;20392;-67
2021/10/02 05:02:50;;;;;;;8.70;5.13;;;14.80;99.90;;;;;;5010775;28;20380;-66
2021/10/02 05:05:55;;;;;;;9.02;4.88;;;14.70;99.90;;;;;;5010528;28;20053;-66
2021/10/02 05:08:59;;;;;;;8.10;4.40;;;14.80;99.90;;;;;;5010161;28;20100;-66
2021/10/02 05:12:03;;;;;;;11.25;5.10;;;14.70;99.90;;;;;;5010883;28;20045;-65
2021/10/02 05:15:07;;;;;;;11.50;5.53;;;14.80;99.90;;;;;;5010074;28;20041;-66
2021/10/02 05:18:11;;;;;;;14.10;5.70;;;14.80;99.90;;;;;;5009787;28;20045;-66
2021/10/02 05:21:15;;;;;;;13.18;5.82;;;14.80;99.90;;;;;;5010031;28;20053;-65
2021/10/02 05:24:19;;;;;;;9.30;5.22;;;14.80;99.90;;;;;;5010297;28;20412;-65
2021/10/02 05:27:23;;;;;;;10.00;5.43;;;14.70;99.90;;;;;;5009887;28;20527;-65
2021/10/02 05:30:27;;;;;;;10.15;5.00;;;14.60;99.90;;;;;;5009861;28;20063;-65
2021/10/02 05:33:31;;;;;;;8.98;5.30;;;14.60;99.90;;;;;;5010139;28;20064;-66
2021/10/02 05:36:35;;;;;;;7.47;4.43;;;14.50;99.90;;;;;;5009762;28;20404;-66
2021/10/02 05:39:40;;;;;;;9.65;5.40;;;14.50;99.90;;;;;;5009364;28;20045;-65
2021/10/02 05:42:44;;;;;;;9.98;4.82;;;14.50;99.90;;;;;;5010421;28;20106;-65
2021/10/02 05:45:48;;;;;;;15.07;5.22;;;14.50;99.90;;;;;;5010047;28;20110;-65
2021/10/02 05:48:52;;;;;;;12.60;5.43;;;14.50;99.90;;;;;;5009676;28;20045;-65
2021/10/02 05:51:56;;;;;;;15.88;9.00;;;14.50;99.90;;;;;;5010668;28;20041;-65
2021/10/02 05:55:00;;;;;;;39.45;26.83;;;14.60;99.90;;;;;;5014629;28;20061;-65
2021/10/02 05:58:04;;;;;;;21.20;15.50;;;14.80;99.90;;;;;;5013887;28;20057;-66
2021/10/02 06:01:08;;;;;;;18.65;13.45;;;14.90;99.90;;;;;;5013470;28;20053;-66
2021/10/02 06:04:12;;;;;;;16.50;12.10;;;15.00;99.90;;;;;;5013399;28;20499;-66
2021/10/02 06:07:16;;;;;;;14.27;9.98;;;15.20;99.90;;;;;;5000937;28;20053;-65
2021/10/02 06:10:21;;;;;;;15.75;9.60;;;15.30;99.90;;;;;;5012805;28;20065;-66
2021/10/02 06:13:25;;;;;;;20.98;9.73;;;15.50;99.90;;;;;;5013229;28;20049;-66
2021/10/02 06:16:29;;;;;;;15.13;8.38;;;15.70;99.90;;;;;;5012999;28;20048;-66
2021/10/02 06:19:33;;;;;;;16.98;8.55;;;15.90;99.90;;;;;;5012732;28;20041;-66
2021/10/02 06:22:37;;;;;;;13.52;6.72;;;15.90;99.90;;;;;;5013231;28;20049;-66
2021/10/02 06:25:41;;;;;;;9.93;6.43;;;15.60;99.90;;;;;;5012846;28;20037;-66
2021/10/02 06:28:45;;;;;;;9.93;5.93;;;15.70;99.90;;;;;;5012618;28;20057;-66
2021/10/02 06:31:49;;;;;;;11.27;5.75;;;15.60;99.90;;;;;;5012766;28;20080;-66
2021/10/02 06:34:53;;;;;;;14.48;5.70;;;15.20;99.90;;;;;;5012802;28;20048;-67
2021/10/02 06:37:58;;;;;;;10.38;5.07;;;15.40;99.90;;;;;;5012917;28;20246;-66
2021/10/02 06:41:02;;;;;;;10.57;5.88;;;15.60;99.90;;;;;;5012768;28;20056;-65
2021/10/02 06:44:08;;;;;;;16.98;8.93;;;15.70;99.90;;;;;;5013125;28;20053;-66
2021/10/02 06:47:12;;;;;;;42.20;22.20;;;15.70;99.90;;;;;;5000994;28;20044;-66
2021/10/02 06:50:16;;;;;;;41.30;20.67;;;15.90;99.90;;;;;;5012484;28;20045;-66
2021/10/02 06:53:20;;;;;;;29.35;16.77;;;16.10;99.90;;;;;;5013518;28;20048;-66
2021/10/02 06:56:24;;;;;;;23.58;12.55;;;16.40;99.90;;;;;;5013116;28;20065;-66
2021/10/02 06:59:28;;;;;;;20.08;10.85;;;16.70;99.90;;;;;;5012338;28;20650;-67
2021/10/02 07:02:33;;;;;;;26.05;13.43;;;17.20;99.90;;;;;;5012708;28;20045;-66
2021/10/02 07:05:37;;;;;;;26.33;15.20;;;17.30;99.90;;;;;;5012438;28;20049;-66
2021/10/02 07:08:42;;;;;;;29.88;17.20;;;17.30;99.90;;;;;;5012036;28;20037;-66
2021/10/02 07:11:46;;;;;;;24.58;15.00;;;18.00;99.90;;;;;;5012393;28;20053;-66
2021/10/02 07:14:50;;;;;;;32.83;20.70;;;19.30;99.90;;;;;;5012801;28;20057;-66
2021/10/02 07:17:54;;;;;;;18.45;10.35;;;20.60;99.90;;;;;;5012180;28;20057;-66
2021/10/02 07:20:58;;;;;;;21.55;9.52;;;22.40;99.90;;;;;;5012150;28;20441;-66
2021/10/02 07:24:02;;;;;;;14.05;8.77;;;23.30;99.90;;;;;;5012114;28;20057;-66
2021/10/02 07:27:06;;;;;;;12.98;7.03;;;23.90;99.30;;;;;;5012415;28;20032;-66
2021/10/02 07:30:12;;;;;;;12.48;7.20;;;24.00;98.70;;;;;;5012128;28;20045;-67
2021/10/02 07:33:16;;;;;;;13.40;7.40;;;23.70;97.60;;;;;;5012211;28;20049;-66
2021/10/02 07:36:21;;;;;;;12.45;7.13;;;24.60;97.20;;;;;;5011753;28;20053;-64
2021/10/02 07:39:26;;;;;;;14.15;7.45;;;25.70;95.80;;;;;;5011225;28;20045;-66
2021/10/02 07:42:31;;;;;;;12.80;7.57;;;26.40;94.90;;;;;;5011790;28;20045;-66
2021/10/02 07:45:35;;;;;;;11.57;7.35;;;26.90;93.60;;;;;;5011550;28;20060;-66
2021/10/02 07:48:40;;;;;;;14.10;8.13;;;27.90;92.50;;;;;;5011000;28;20072;-66
2021/10/02 07:51:46;;;;;;;15.77;9.25;;;27.20;91.90;;;;;;5011618;28;20413;-67
2021/10/02 07:54:51;;;;;;;11.80;7.63;;;26.00;93.00;;;;;;5011532;28;20049;-66
2021/10/02 07:57:55;;;;;;;13.70;8.05;;;26.40;92.30;;;;;;5011278;28;20582;-65
2021/10/02 08:01:00;;;;;;;17.15;10.23;;;24.80;94.20;;;;;;4999447;28;20393;-65
2021/10/02 08:04:05;;;;;;;19.30;11.80;;;25.30;93.80;;;;;;5011392;28;20040;-65
2021/10/02 08:07:09;;;;;;;16.60;9.38;;;25.50;93.10;;;;;;5011318;28;20045;-65
2021/10/02 08:10:17;;;;;;;18.23;8.43;;;25.90;92.20;;;;;;5011123;28;20052;-66
2021/10/02 08:13:22;;;;;;;12.13;6.97;;;27.30;91.50;;;;;;5011200;28;20045;-66
2021/10/02 08:16:30;;;;;;;12.38;6.38;;;27.70;90.50;;;;;;5010737;28;20499;-65
2021/10/02 08:19:36;;;;;;;13.27;6.80;;;29.30;88.30;;;;;;5010678;28;20052;-65
2021/10/02 08:22:44;;;;;;;14.98;6.13;;;27.30;90.20;;;;;;5011071;28;20368;-66
2021/10/02 08:25:50;;;;;;;13.68;5.63;;;26.90;90.20;;;;;;5011110;28;20045;-66
2021/10/02 08:28:54;;;;;;;9.70;4.57;;;26.90;90.50;;;;;;5010617;28;20057;-66
2021/10/02 08:31:58;;;;;;;9.10;4.55;;;28.00;90.20;;;;;;5010582;28;20049;-65
2021/10/02 08:35:08;;;;;;;4.90;3.58;;;28.40;88.60;;;;;;5011089;28;20041;-66
2021/10/02 08:38:12;;;;;;;7.78;4.30;;;29.10;88.10;;;;;;5010570;28;20041;-66
2021/10/02 08:41:20;;;;;;;12.77;3.83;;;29.20;88.10;;;;;;5011248;28;20064;-66
2021/10/02 08:44:26;;;;;;;8.93;4.32;;;31.10;83.80;;;;;;5010837;28;20488;-64
2021/10/02 08:47:34;;;;;;;4.90;3.80;;;30.90;81.30;;;;;;5010863;28;20057;-65
2021/10/02 08:50:41;;;;;;;7.82;4.22;;;31.80;78.80;;;;;;5010694;28;20523;-66
2021/10/02 08:53:48;;;;;;;7.22;4.50;;;32.40;77.30;;;;;;5010554;28;20045;-64
2021/10/02 08:56:52;;;;;;;8.18;5.03;;;30.40;79.10;;;;;;5010273;28;20049;-66
2021/10/02 08:59:57;;;;;;;10.27;5.82;;;29.40;80.70;;;;;;4997670;28;20535;-66
2021/10/02 09:03:01;;;;;;;9.30;5.38;;;26.90;85.10;;;;;;5010417;28;20052;-65
2021/10/02 09:06:05;;;;;;;14.57;6.38;;;28.00;84.60;;;;;;5010321;28;20064;-66
2021/10/02 09:09:09;;;;;;;11.55;5.88;;;28.40;83.70;;;;;;5010204;28;20285;-65
2021/10/02 09:12:17;;;;;;;13.70;6.93;;;27.30;85.10;;;;;;5010093;28;20508;-65
2021/10/02 09:15:21;;;;;;;12.95;7.20;;;27.40;87.50;;;;;;5010593;28;20053;-66
2021/10/02 09:18:26;;;;;;;16.35;7.65;;;28.90;83.60;;;;;;5010279;28;20496;-65
2021/10/02 09:21:44;;;;;;;12.90;7.43;;;26.50;86.90;;;;;;5010957;28;20053;-66
2021/10/02 09:24:50;;;;;;;18.48;6.63;;;29.40;84.80;;;;;;5010275;28;20053;-66
2021/10/02 09:28:10;;;;;;;14.80;6.47;;;30.70;80.80;;;;;;5011994;28;20362;-66
2021/10/02 09:31:18;;;;;;;12.20;6.00;;;33.30;78.00;;;;;;5013949;28;20056;-65
2021/10/02 09:34:24;;;;;;;11.05;5.47;;;33.10;76.00;;;;;;5014268;28;20054;-65
2021/10/02 09:37:37;;;;;;;10.82;4.35;;;29.30;80.10;;;;;;5014124;28;20065;-66
2021/10/02 09:40:49;;;;;;;8.20;5.32;;;32.20;77.20;;;;;;5014242;28;20335;-65
2021/10/02 09:43:55;;;;;;;9.18;4.80;;;32.50;75.80;;;;;;5013659;28;20041;-66
2021/10/02 09:47:00;;;;;;;6.80;4.43;;;33.80;74.80;;;;;;5013580;28;20491;-65
2021/10/02 09:50:13;;;;;;;12.73;5.18;;;33.60;72.30;;;;;;5013196;28;20049;-65
2021/10/02 09:53:19;;;;;;;11.18;4.88;;;32.50;72.90;;;;;;5013263;28;20044;-66
2021/10/02 09:56:23;;;;;;;8.30;4.95;;;30.90;75.70;;;;;;5013602;28;20053;-66
2021/10/02 09:59:27;;;;;;;5.47;3.95;;;30.60;76.80;;;;;;5013312;28;20392;-65
2021/10/02 10:02:37;;;;;;;6.63;4.07;;;30.00;79.20;;;;;;5013572;28;20499;-66
2021/10/02 10:05:44;;;;;;;8.15;4.40;;;33.50;74.60;;;;;;5013763;28;20049;-65
2021/10/02 10:09:07;;;;;;;7.57;3.85;;;34.20;72.00;;;;;;5013691;28;20052;-66
2021/10/02 10:12:23;;;;;;;7.20;3.75;;;35.90;71.10;;;;;;5014106;28;20045;-66
2021/10/02 10:15:35;;;;;;;9.75;3.70;;;38.40;67.70;;;;;;5013933;28;20040;-66
2021/10/02 10:18:39;;;;;;;5.00;3.25;;;38.30;65.50;;;;;;5013359;28;20052;-66
2021/10/02 10:21:43;;;;;;;5.88;2.97;;;38.20;65.60;;;;;;5013103;28;20045;-66
2021/10/02 10:24:58;;;;;;;5.55;3.03;;;36.20;66.50;;;;;;5012903;28;20041;-67
2021/10/02 10:28:10;;;;;;;7.05;2.67;;;38.80;65.70;;;;;;5012748;28;20036;-65
2021/10/02 10:31:19;;;;;;;6.47;2.97;;;36.00;65.70;;;;;;5012958;28;20045;-66
2021/10/02 10:34:23;;;;;;;3.60;2.70;;;37.80;64.40;;;;;;5012923;28;20049;-66
2021/10/02 10:37:28;;;;;;;9.60;3.42;;;37.70;63.40;;;;;;5012131;28;20818;-65
2021/10/02 10:40:33;;;;;;;10.52;3.00;;;34.90;63.80;;;;;;5012815;28;20237;-65
2021/10/02 10:43:38;;;;;;;10.82;2.80;;;36.50;65.30;;;;;;5012720;28;20428;-66
2021/10/02 10:46:42;;;;;;;4.93;2.97;;;36.20;64.00;;;;;;5012115;28;20052;-66
2021/10/02 10:49:47;;;;;;;8.57;2.63;;;38.00;62.80;;;;;;4999733;28;20055;-66
2021/10/02 10:52:52;;;;;;;3.80;2.58;;;38.10;62.40;;;;;;5012694;28;20500;-66
2021/10/02 10:55:58;;;;;;;4.30;3.08;;;35.10;64.20;;;;;;5012811;28;20512;-66
2021/10/02 10:59:04;;;;;;;4.97;2.95;;;33.90;64.90;;;;;;5011923;28;20048;-66
2021/10/02 11:02:08;;;;;;;12.77;4.60;;;34.70;64.70;;;;;;5012627;28;20041;-66
2021/10/02 11:05:35;;;;;;;5.78;3.33;;;35.30;64.10;;;;;;5012122;28;20045;-66
2021/10/02 11:08:59;;;;;;;5.93;3.67;;;38.70;61.60;;;;;;5012345;28;20044;-66
2021/10/02 11:12:06;;;;;;;8.45;3.25;;;38.50;59.90;;;;;;5012107;28;20045;-66
2021/10/02 11:15:23;;;;;;;7.53;3.55;;;35.00;62.50;;;;;;5012154;28;20053;-66
2021/10/02 11:18:45;;;;;;;8.02;4.47;;;35.40;63.50;;;;;;5011678;28;20081;-66
2021/10/02 11:22:02;;;;;;;5.68;3.90;;;37.20;61.80;;;;;;5012113;28;20045;-66
2021/10/02 11:25:21;;;;;;;6.40;3.65;;;35.20;63.60;;;;;;5012413;28;20048;-66
2021/10/02 11:28:25;;;;;;;4.90;3.33;;;36.40;61.20;;;;;;5011598;28;20049;-65
2021/10/02 11:31:32;;;;;;;4.93;3.60;;;31.80;67.00;;;;;;5012016;28;20052;-66
2021/10/02 11:34:38;;;;;;;6.88;4.07;;;34.90;64.80;;;;;;5012156;28;20049;-66
2021/10/02 11:37:47;;;;;;;6.40;3.72;;;38.50;61.00;;;;;;5011994;28;20405;-66
2021/10/02 11:40:51;;;;;;;4.57;3.45;;;40.30;59.50;;;;;;5012379;28;20053;-66
2021/10/02 11:43:56;;;;;;;7.22;3.50;;;39.10;59.30;;;;;;5011914;28;20049;-66
2021/10/02 11:47:36;;;;;;;6.68;4.07;;;37.80;58.70;;;;;;5012286;28;20512;-66
2021/10/02 11:50:43;;;;;;;6.95;3.78;;;37.10;60.60;;;;;;4998950;28;20049;-66
2021/10/02 11:54:09;;;;;;;6.47;4.18;;;38.00;60.80;;;;;;5012496;28;20065;-66
2021/10/02 11:57:17;;;;;;;5.78;4.45;;;34.80;61.20;;;;;;5012657;28;20069;-65
2021/10/02 12:00:22;;;;;;;7.90;4.53;;;33.10;64.20;;;;;;5011691;28;20053;-66
2021/10/02 12:03:33;;;;;;;5.78;4.80;;;32.80;65.20;;;;;;5011779;28;20041;-66
2021/10/02 12:06:40;;;;;;;6.90;4.65;;;34.60;64.40;;;;;;5011903;28;20408;-66
2021/10/02 12:09:55;;;;;;;10.63;4.07;;;36.40;62.00;;;;;;5011352;28;20045;-65
2021/10/02 12:13:23;;;;;;;6.85;4.50;;;37.20;61.50;;;;;;5011589;28;20388;-66
2021/10/02 12:16:33;;;;;;;6.30;5.00;;;35.80;60.80;;;;;;5011455;28;20044;-66
2021/10/02 12:19:38;;;;;;;10.90;5.72;;;32.00;66.30;;;;;;5011499;28;20053;-67
2021/10/02 12:22:42;;;;;;;8.55;4.93;;;31.90;67.30;;;;;;4999241;28;20041;-66
2021/10/02 12:25:46;;;;;;;7.70;5.15;;;33.40;64.80;;;;;;5011082;28;20049;-65
2021/10/02 12:29:01;;;;;;;5.97;4.93;;;32.90;65.10;;;;;;5011021;28;20045;-66
2021/10/02 12:32:15;;;;;;;7.75;4.88;;;31.20;67.40;;;;;;5011174;28;20057;-67
2021/10/02 12:35:20;;;;;;;7.43;4.65;;;32.50;66.80;;;;;;5011033;28;20037;-66
2021/10/02 12:38:24;;;;;;;6.50;4.00;;;33.00;66.10;;;;;;5010934;28;20044;-66
2021/10/02 12:41:37;;;;;;;7.72;5.00;;;35.10;64.20;;;;;;5011401;28;20049;-65
2021/10/02 12:44:46;;;;;;;6.05;4.97;;;35.90;63.10;;;;;;5011061;28;20036;-66
2021/10/02 12:48:02;;;;;;;7.68;4.97;;;33.60;64.80;;;;;;4998787;28;20129;-66
2021/10/02 12:51:09;;;;;;;8.88;5.63;;;31.60;65.00;;;;;;5011131;28;20053;-65
2021/10/02 12:54:16;;;;;;;6.22;4.95;;;32.10;65.00;;;;;;5010784;28;20044;-66
2021/10/02 12:57:34;;;;;;;7.72;4.68;;;31.90;67.30;;;;;;5011086;28;20048;-66
2021/10/02 13:00:39;;;;;;;9.02;4.93;;;32.40;66.20;;;;;;5010642;28;20053;-65
2021/10/02 13:03:43;;;;;;;8.40;5.78;;;31.10;66.40;;;;;;4998866;28;20041;-66
2021/10/02 13:06:48;;;;;;;12.90;5.00;;;31.50;67.90;;;;;;5010656;28;20040;-66
2021/10/02 13:10:20;;;;;;;8.55;5.47;;;30.60;67.80;;;;;;5010284;28;20053;-66
2021/10/02 13:13:25;;;;;;;10.15;4.90;;;31.90;66.80;;;;;;5011059;28;20053;-67
2021/10/02 13:16:29;;;;;;;8.85;4.72;;;32.10;65.50;;;;;;5010720;28;20049;-66
2021/10/02 13:19:33;;;;;;;12.15;5.40;;;31.50;66.00;;;;;;5010399;28;20053;-66
2021/10/02 13:22:44;;;;;;;7.65;5.22;;;29.40;68.70;;;;;;4998719;28;20057;-65
2021/10/02 13:25:55;;;;;;;12.05;5.60;;;29.60;70.10;;;;;;5011004;28;20045;-66
2021/10/02 13:29:00;;;;;;;8.98;5.32;;;27.80;72.10;;;;;;5010270;28;20056;-65
2021/10/02 13:32:23;;;;;;;9.63;5.53;;;28.00;70.90;;;;;;5010664;28;20385;-65
2021/10/02 13:35:32;;;;;;;10.07;5.40;;;27.80;71.20;;;;;;4998315;28;20057;-65
2021/10/02 13:38:40;;;;;;;7.60;5.60;;;27.60;72.30;;;;;;5009958;28;20333;-65
2021/10/02 13:41:49;;;;;;;8.00;5.15;;;27.40;73.00;;;;;;5010357;28;20037;-65
2021/10/02 13:44:55;;;;;;;7.95;5.50;;;27.60;72.90;;;;;;5010020;28;20041;-65
2021/10/02 13:48:03;;;;;;;11.45;5.95;;;27.00;73.60;;;;;;5010324;28;20056;-65
2021/10/02 13:51:07;;;;;;;10.45;6.13;;;26.60;75.20;;;;;;5009974;28;20045;-64
2021/10/02 13:54:11;;;;;;;6.72;5.65;;;25.60;78.20;;;;;;5010258;28;20496;-65
2021/10/02 13:57:16;;;;;;;14.32;6.75;;;24.00;85.20;;;;;;5010196;28;20037;-65
2021/10/02 14:00:20;;;;;;;13.93;6.82;;;23.60;91.90;;;;;;5009860;28;20065;-66
2021/10/02 14:03:24;;;;;;;12.38;6.32;;;23.70;95.80;;;;;;5010105;28;20591;-66
2021/10/02 14:06:28;;;;;;;11.27;7.45;;;24.00;93.80;;;;;;5010088;28;20098;-66
2021/10/02 14:09:33;;;;;;;8.10;5.90;;;24.40;93.10;;;;;;5010053;28;20049;-66
2021/10/02 14:12:37;;;;;;;10.18;5.93;;;24.70;91.00;;;;;;5010310;28;20048;-66
2021/10/02 14:15:41;;;;;;;9.55;6.53;;;24.80;91.50;;;;;;5013827;28;20412;-66
2021/10/02 14:18:45;;;;;;;14.23;5.90;;;25.00;91.10;;;;;;5013162;28;20049;-66
2021/10/02 14:21:49;;;;;;;10.25;6.28;;;25.10;88.80;;;;;;5001681;28;20110;-66
2021/10/02 14:24:53;;;;;;;13.50;6.88;;;24.90;90.30;;;;;;5013553;28;20041;-66
2021/10/02 14:27:57;;;;;;;14.52;7.28;;;24.40;92.60;;;;;;5013551;28;20036;-66
2021/10/02 14:31:01;;;;;;;17.33;7.93;;;23.80;93.90;;;;;;5013444;28;20052;-67
2021/10/02 14:34:07;;;;;;;11.93;7.47;;;23.40;98.30;;;;;;5013491;28;20045;-66
2021/10/02 14:37:11;;;;;;;14.68;8.25;;;23.30;99.30;;;;;;5013328;28;20045;-66
2021/10/02 14:40:15;;;;;;;16.80;8.32;;;22.80;99.90;;;;;;5013214;28;20053;-67
2021/10/02 14:43:21;;;;;;;12.43;8.20;;;22.30;99.90;;;;;;5013163;28;20523;-67
2021/10/02 14:46:25;;;;;;;12.27;8.07;;;22.20;99.90;;;;;;5013316;28;20036;-67
2021/10/02 14:49:30;;;;;;;13.68;7.85;;;22.20;99.90;;;;;;5012433;28;20408;-66
2021/10/02 14:52:35;;;;;;;11.25;7.55;;;22.20;99.90;;;;;;5012905;28;20048;-66
2021/10/02 14:55:40;;;;;;;14.20;8.43;;;22.20;99.90;;;;;;5012758;28;20049;-67
2021/10/02 14:58:46;;;;;;;23.73;13.02;;;22.20;99.90;;;;;;5000237;28;20070;-66
2021/10/02 15:01:51;;;;;;;22.70;12.55;;;22.30;99.90;;;;;;5012960;28;20037;-66
2021/10/02 15:04:55;;;;;;;19.55;11.45;;;22.40;99.90;;;;;;5012708;28;20041;-66
2021/10/02 15:08:01;;;;;;;20.35;12.85;;;22.60;99.90;;;;;;5012471;28;20050;-66
2021/10/02 15:11:06;;;;;;;14.55;8.90;;;23.00;99.90;;;;;;5012572;28;20060;-65
2021/10/02 15:14:12;;;;;;;16.17;8.13;;;23.60;99.90;;;;;;5012576;28;20056;-66
2021/10/02 15:17:17;;;;;;;10.98;7.03;;;23.90;99.90;;;;;;5012494;28;20049;-67
2021/10/02 15:20:21;;;;;;;10.45;6.95;;;24.00;99.90;;;;;;5012163;28;20049;-66
2021/10/02 15:23:31;;;;;;;10.18;6.75;;;23.90;99.90;;;;;;5012376;28;20037;-66
2021/10/02 15:26:39;;;;;;;12.45;7.68;;;23.80;99.90;;;;;;5012405;28;20045;-66
2021/10/02 15:29:48;;;;;;;13.93;9.05;;;23.70;99.90;;;;;;5012136;28;20048;-66
2021/10/02 15:32:52;;;;;;;15.43;7.65;;;23.80;99.90;;;;;;5012593;28;20401;-67
2021/10/02 15:35:57;;;;;;;14.77;8.63;;;23.50;99.90;;;;;;5012378;28;20061;-66
2021/10/02 15:39:04;;;;;;;10.43;7.55;;;22.80;99.90;;;;;;5011543;28;20044;-67
2021/10/02 15:42:10;;;;;;;16.35;8.02;;;22.10;99.90;;;;;;4999962;28;20400;-65
2021/10/02 15:45:14;;;;;;;16.98;8.88;;;21.30;99.90;;;;;;5012009;28;20060;-66
2021/10/02 15:48:19;;;;;;;12.25;7.88;;;21.00;99.90;;;;;;5011668;28;20049;-66
2021/10/02 15:51:25;;;;;;;27.42;9.57;;;21.30;99.90;;;;;;5011959;28;20056;-67
2021/10/02 15:54:29;;;;;;;21.00;10.70;;;21.20;99.90;;;;;;5012233;28;20052;-68
2021/10/02 15:57:36;;;;;;;25.58;10.50;;;20.50;99.90;;;;;;5011698;28;20065;-68
2021/10/02 16:00:43;;;;;;;18.35;11.02;;;20.10;99.90;;;;;;5011912;28;20061;-68
2021/10/02 16:04:09;;;;;;;23.88;11.43;;;20.00;99.90;;;;;;5012309;28;20044;-67
2021/10/02 16:07:18;;;;;;;24.88;10.38;;;20.10;99.90;;;;;;5011469;28;20052;-68
2021/10/02 16:10:25;;;;;;;17.73;9.90;;;20.20;99.90;;;;;;5011761;28;20040;-68
2021/10/02 16:13:32;;;;;;;16.20;10.85;;;20.40;99.90;;;;;;5011862;28;20594;-67
2021/10/02 16:16:36;;;;;;;21.75;11.18;;;20.40;99.90;;;;;;5011174;28;20053;-68
2021/10/02 16:19:41;;;;;;;20.73;11.40;;;20.30;99.90;;;;;;5010714;28;20092;-67
2021/10/02 16:22:51;;;;;;;22.85;11.32;;;20.20;99.90;;;;;;5011353;28;20049;-67
2021/10/02 16:25:56;;;;;;;18.63;10.60;;;20.10;99.90;;;;;;5011494;28;20040;-67
2021/10/02 16:29:02;;;;;;;19.35;11.68;;;20.00;99.90;;;;;;4999064;28;20047;-67
2021/10/02 16:32:06;;;;;;;18.27;11.70;;;20.10;99.90;;;;;;5011390;28;20048;-67
2021/10/02 16:35:11;;;;;;;16.35;11.27;;;20.00;99.90;;;;;;4998866;28;20062;-67
2021/10/02 16:38:15;;;;;;;16.23;11.68;;;20.00;99.90;;;;;;5010572;28;20045;-67
2021/10/02 16:41:20;;;;;;;18.58;11.75;;;19.80;99.90;;;;;;5011310;28;20041;-67
2021/10/02 16:44:24;;;;;;;20.33;11.50;;;19.70;99.90;;;;;;5010864;28;20041;-67
2021/10/02 16:47:28;;;;;;;18.13;11.90;;;19.60;99.90;;;;;;5009956;28;20484;-66
2021/10/02 16:50:35;;;;;;;17.58;12.05;;;19.50;99.90;;;;;;5010417;28;20396;-66
2021/10/02 16:53:40;;;;;;;24.48;12.23;;;19.40;99.90;;;;;;4998456;28;20048;-67
2021/10/02 16:56:45;;;;;;;24.38;12.75;;;19.30;99.90;;;;;;5010257;28;20040;-67
2021/10/02 16:59:51;;;;;;;17.80;11.38;;;19.20;99.90;;;;;;5009764;28;20061;-67
2021/10/02 17:02:55;;;;;;;22.48;12.23;;;19.10;99.90;;;;;;5010449;28;20033;-68
2021/10/02 17:06:00;;;;;;;19.15;11.75;;;19.00;99.90;;;;;;4998039;28;20121;-68